Cdry Blue — ICOB — position and weather

sailwx.info

Track history (hours):
 
Tides and Currents Weather Stations Pressure Air Temp Water Temp Dewpoint Dewpoint Depression Visibility Wind Speed Wind Dir Waves Ship Positions

Cdry Blue

Last reported at 2015-Mar-28 06:33 UTC. Time now 2015-Mar-31 15:30 UTC.
Position N 38°21' E 015°28'.

Length 108 m; draft 4.7 m.

Type: Cargo ship. MMSI: 247289300.

Date/timePositionNaut miles runAvg speedWind from/ knotsBaromVisibWave heightAir tempDewpointWater temp
2015-Mar-28 06:33N 38°21' E 015°28'8113.1
2015-Mar-28 00:24N 38°17' E 013°45'1113.1
2015-Mar-27 23:33N 38°17' E 013°31'1313.0
2015-Mar-27 22:33N 38°17' E 013°15'1313.2
2015-Mar-27 21:34N 38°17' E 012°58'1312.5
2015-Mar-27 20:33N 38°17' E 012°42'16912.9
2015-Mar-27 07:24N 38°36' E 009°08'1213.0
2015-Mar-27 06:30N 38°38' E 008°53'1313.0
2015-Mar-27 05:32N 38°39' E 008°37'1412.9
2015-Mar-27 04:27N 38°40' E 008°19'20412.7
2015-Mar-26 12:24N 39°04' E 003°59'1011.9
2015-Mar-26 11:31N 39°05' E 003°46'1212.6
2015-Mar-26 10:33N 39°04' E 003°30'1312.6
2015-Mar-26 09:33N 39°04' E 003°14'1212.0
2015-Mar-26 08:34N 39°05' E 002°58'1312.6
2015-Mar-26 07:33N 39°07' E 002°42'1312.8
2015-Mar-26 06:33N 39°09' E 002°26'1312.7
2015-Mar-26 05:33N 39°12' E 002°10'1312.6
2015-Mar-26 04:33N 39°15' E 001°54'1312.6
2015-Mar-26 03:33N 39°18' E 001°38'1312.8
2015-Mar-26 02:33N 39°20' E 001°22'6312.4
2015-Mar-25 21:30N 39°33' E 000°03'  
2015-Mar-22 20:25N 39°36' W 000°11'6611.3
2015-Mar-22 14:33N 39°22' E 001°13'1111.4
2015-Mar-22 13:33N 39°19' E 001°27'1211.6
2015-Mar-22 12:33N 39°16' E 001°42'1211.8
2015-Mar-22 11:33N 39°13' E 001°57'1211.9
2015-Mar-22 10:33N 39°11' E 002°12'1211.8
2015-Mar-22 09:33N 39°08' E 002°27'1111.5
2015-Mar-22 08:33N 39°06' E 002°41'1111.2
2015-Mar-22 07:33N 39°04' E 002°55'1111.3
2015-Mar-22 06:33N 39°03' E 003°10'1111.4
2015-Mar-22 05:33N 39°02' E 003°25'1110.9
2015-Mar-22 04:30N 39°01' E 003°39'22211.1
2015-Mar-21 08:27N 38°49' E 008°24'1111.0
2015-Mar-21 07:30N 38°48' E 008°38'1010.5
2015-Mar-21 06:33N 38°46' E 008°50'16111.2
2015-Mar-20 16:12N 38°20' E 012°14'812.1
2015-Mar-20 15:31N 38°19' E 012°24'1212.6
2015-Mar-20 14:33N 38°17' E 012°39'1512.3
2015-Mar-20 13:23N 38°18' E 012°58'1011.7
2015-Mar-20 12:31N 38°19' E 013°11'1212.4
2015-Mar-20 11:33N 38°16' E 013°26'1212.0
2015-Mar-20 10:33N 38°16' E 013°41'  
Track history (hours):
 
Tides and Currents Weather Stations Pressure Air Temp Water Temp Dewpoint Dewpoint Depression Visibility Wind Speed Wind Dir Waves Ship Positions

Cdry Blue

Last reported at 2015-Mar-28 06:33 UTC. Time now 2015-Mar-31 15:30 UTC.
Position N 38°21' E 015°28'.

Length 108 m; draft 4.7 m.

Type: Cargo ship. MMSI: 247289300.

Date/timePositionNaut miles runAvg speedWind from/ knotsBaromVisibWave heightAir tempDewpointWater temp
2015-Mar-28 06:33N 38°21' E 015°28'8113.1
2015-Mar-28 00:24N 38°17' E 013°45'1113.1
2015-Mar-27 23:33N 38°17' E 013°31'1313.0
2015-Mar-27 22:33N 38°17' E 013°15'1313.2
2015-Mar-27 21:34N 38°17' E 012°58'1312.5
2015-Mar-27 20:33N 38°17' E 012°42'16912.9
2015-Mar-27 07:24N 38°36' E 009°08'1213.0
2015-Mar-27 06:30N 38°38' E 008°53'1313.0
2015-Mar-27 05:32N 38°39' E 008°37'1412.9
2015-Mar-27 04:27N 38°40' E 008°19'20412.7
2015-Mar-26 12:24N 39°04' E 003°59'1011.9
2015-Mar-26 11:31N 39°05' E 003°46'1212.6
2015-Mar-26 10:33N 39°04' E 003°30'1312.6
2015-Mar-26 09:33N 39°04' E 003°14'1212.0
2015-Mar-26 08:34N 39°05' E 002°58'1312.6
2015-Mar-26 07:33N 39°07' E 002°42'1312.8
2015-Mar-26 06:33N 39°09' E 002°26'1312.7
2015-Mar-26 05:33N 39°12' E 002°10'1312.6
2015-Mar-26 04:33N 39°15' E 001°54'1312.6
2015-Mar-26 03:33N 39°18' E 001°38'1312.8
2015-Mar-26 02:33N 39°20' E 001°22'6312.4
2015-Mar-25 21:30N 39°33' E 000°03'  
2015-Mar-22 20:25N 39°36' W 000°11'6611.3
2015-Mar-22 14:33N 39°22' E 001°13'1111.4
2015-Mar-22 13:33N 39°19' E 001°27'1211.6
2015-Mar-22 12:33N 39°16' E 001°42'1211.8
2015-Mar-22 11:33N 39°13' E 001°57'1211.9
2015-Mar-22 10:33N 39°11' E 002°12'1211.8
2015-Mar-22 09:33N 39°08' E 002°27'1111.5
2015-Mar-22 08:33N 39°06' E 002°41'1111.2
2015-Mar-22 07:33N 39°04' E 002°55'1111.3
2015-Mar-22 06:33N 39°03' E 003°10'1111.4
2015-Mar-22 05:33N 39°02' E 003°25'1110.9
2015-Mar-22 04:30N 39°01' E 003°39'22211.1
2015-Mar-21 08:27N 38°49' E 008°24'1111.0
2015-Mar-21 07:30N 38°48' E 008°38'1010.5
2015-Mar-21 06:33N 38°46' E 008°50'16111.2
2015-Mar-20 16:12N 38°20' E 012°14'812.1
2015-Mar-20 15:31N 38°19' E 012°24'1212.6
2015-Mar-20 14:33N 38°17' E 012°39'1512.3
2015-Mar-20 13:23N 38°18' E 012°58'1011.7
2015-Mar-20 12:31N 38°19' E 013°11'1212.4
2015-Mar-20 11:33N 38°16' E 013°26'1212.0
2015-Mar-20 10:33N 38°16' E 013°41'  

Dump ship's entire track history